METAR Data
IDs: Format: Raw Decoded Include TAF

Data at: 1016 UTC 09 Jul 2020

Region: TOP
KATL 090952Z 32003KT 10SM FEW012 FEW080 BKN180 BKN250 23/21 A2993 RMK AO2 SLP125 T02330206

KBOS 090954Z 22006KT 10SM FEW030 23/21 A2999 RMK AO2 SLP153 T02280206

KBWI 090954Z 00000KT 10SM BKN008 23/21 A2996 RMK AO2 SLP143 T02330211

KCLE 090951Z 24005KT 10SM CLR 21/20 A2995 RMK AO2 SLP134 T02110200 $

KCLT 090952Z 04008KT 10SM OVC009 23/21 A2993 RMK AO2 SLP124 T02330206 $

KCVG 090952Z 32004KT 8SM CLR 24/21 A2992 RMK AO2 SLP119 T02390206

KDCA 090952Z 00000KT 10SM FEW040 FEW120 24/23 A2996 RMK AO2 SLP144 T02440228

KDEN 090953Z 03007KT 10SM SCT160 18/03 A3003 RMK AO2 SLP074 T01780033

KDFW 090953Z 17011G15KT 10SM CLR 27/23 A2983 RMK AO2 SLP090 T02670233 $

KDTW 090953Z 00000KT 8SM FEW120 BKN220 22/20 A2993 RMK AO2 SLP130 T02220200

KEWR 090951Z 25003KT 9SM FEW015 FEW180 SCT250 23/22 A2998 RMK AO2 SLP152 T02330222

KFLL 090953Z 31005KT 10SM FEW025 27/24 A2993 RMK AO2 SLP135 T02670244 $

KIAD 090952Z 00000KT 9SM FEW120 22/21 A2996 RMK AO2 SLP141 T02170206

KIAH 090953Z 19006KT 7SM SCT014 28/25 A2990 RMK AO2 SLP125 T02780250

KJFK 090951Z 19004KT 10SM FEW015 FEW180 SCT250 23/22 A3000 RMK AO2 SLP157 T02280222

KLAS 090956Z 19009KT 10SM CLR 29/M03 A2979 RMK AO2 SLP053 T02891028

KLAX 090953Z 00000KT 10SM FEW007 BKN011 18/15 A2989 RMK AO2 SLP117 T01830150

KLGA 090951Z 20006KT 10SM SCT200 BKN250 26/21 A2998 RMK AO2 SLP150 T02560211

KMCO 090953Z 27007KT 10SM BKN250 26/24 A2991 RMK AO2 SLP127 T02560239

KMDW 090953Z 24005KT 10SM FEW200 FEW250 24/20 A2990 RMK AO2 SLP113 T02440200

KMEM 090954Z 22003KT 10SM BKN070 25/23 A2991 RMK AO2 SLP124 T02500233 $

KMIA 090953Z 30003KT 10SM FEW025 BKN250 28/25 A2994 RMK AO2 SLP137 OCNL LTGICCC DSNT SW CB DSNT SW T02780250

KMSP 091007Z VRB03KT 8SM -RA FEW011 SCT070 BKN080 OVC200 22/19 A2978 RMK AO2 LTG DSNT NE TSE07 TS OHD MOV NE P0032 T02170189

KORD 090951Z 22005KT 10SM FEW200 FEW250 25/21 A2990 RMK AO2 SLP117 T02500211 $

KPDX 090953Z 00000KT 10SM BKN043 16/12 A3002 RMK AO2 SLP163 T01610117

KPHL 090954Z 12003KT 7SM OVC007 23/22 A2998 RMK AO2 SLP153 T02330222

KPHX 090951Z VRB03KT 10SM CLR 34/09 A2974 RMK AO2 SLP048 T03390094

KPIT 090951Z 17003KT 10SM FEW140 22/19 A2996 RMK AO2 SLP139 T02170194

KSAN 090951Z 00000KT 9SM OVC011 18/14 A2990 RMK AO2 SLP123 T01780144

KSEA 090953Z 20003KT 10SM OVC043 15/12 A3002 RMK AO2 SLP169 T01500122

KSFO 090956Z 31005KT 10SM FEW011 13/09 A2988 RMK AO2 SLP116 T01330094

KSLC 090954Z 25003KT 10SM CLR 19/09 A2993 RMK AO2 SLP079 T01890094

KSTL 090951Z 12006KT 10SM CLR 24/22 A2989 RMK AO2 SLP107 T02440217 $

KTPA 090953Z 31003KT 10SM FEW025 SCT280 27/22 A2994 RMK AO2 SLP137 T02720222